createdAt,value
2023-03-11T00:00:52.515Z,3.00
2023-03-11T00:03:23.290Z,3.10
2023-03-11T00:05:53.854Z,3.10
2023-03-11T00:08:24.992Z,3.10
2023-03-11T00:10:55.596Z,3.10
2023-03-11T00:13:25.264Z,3.10
2023-03-11T00:15:57.113Z,3.00
2023-03-11T00:18:27.306Z,3.10
2023-03-11T00:20:57.891Z,3.10
2023-03-11T00:23:27.591Z,3.10
2023-03-11T00:25:56.851Z,3.10
2023-03-11T00:28:26.937Z,3.00
2023-03-11T00:30:57.135Z,3.00
2023-03-11T00:33:26.673Z,3.00
2023-03-11T00:35:55.447Z,3.00
2023-03-11T00:38:24.584Z,3.00
2023-03-11T00:40:53.277Z,3.00
2023-03-11T00:43:21.931Z,3.00
2023-03-11T00:45:50.666Z,2.90
2023-03-11T00:48:20.921Z,3.00
2023-03-11T00:50:50.596Z,2.90
2023-03-11T00:53:20.213Z,2.90
2023-03-11T00:55:48.909Z,2.90
2023-03-11T00:58:17.982Z,2.90
2023-03-11T01:00:52.597Z,2.90
2023-03-11T01:03:22.697Z,2.90
2023-03-11T01:05:51.439Z,2.80
2023-03-11T01:08:20.429Z,2.80
2023-03-11T01:10:49.323Z,2.80
2023-03-11T01:13:18.046Z,2.80
2023-03-11T01:15:46.749Z,2.80
2023-03-11T01:18:16.810Z,2.70
2023-03-11T01:20:47.025Z,2.70
2023-03-11T01:23:17.237Z,2.70
2023-03-11T01:25:46.045Z,2.70
2023-03-11T01:28:14.766Z,2.70
2023-03-11T01:30:44.474Z,2.70
2023-03-11T01:33:17.293Z,2.70
2023-03-11T01:35:49.390Z,2.70
2023-03-11T01:38:18.439Z,2.70
2023-03-11T01:40:49.389Z,2.60
2023-03-11T01:43:47.745Z,2.60
2023-03-11T01:46:30.579Z,2.70
2023-03-11T01:49:00.669Z,2.60
2023-03-11T01:51:37.013Z,2.60
2023-03-11T01:54:10.660Z,2.60
2023-03-11T01:56:40.922Z,2.50
2023-03-11T01:59:13.085Z,2.50
2023-03-11T02:01:50.373Z,2.50
2023-03-11T02:04:19.923Z,2.50
2023-03-11T02:06:53.703Z,2.50
2023-03-11T02:09:24.297Z,2.50
2023-03-11T02:11:53.070Z,2.40
2023-03-11T02:14:22.636Z,2.40
2023-03-11T02:16:51.277Z,2.40
2023-03-11T02:19:27.972Z,2.40
2023-03-11T02:21:58.694Z,2.40
2023-03-11T02:24:37.090Z,2.40
2023-03-11T02:27:09.525Z,2.40
2023-03-11T02:29:39.129Z,2.40
2023-03-11T02:32:10.906Z,2.40
2023-03-11T02:34:44.016Z,2.40
2023-03-11T02:37:16.156Z,2.30
2023-03-11T02:39:51.354Z,2.30
2023-03-11T02:42:26.424Z,2.30
2023-03-11T02:44:59.701Z,2.30
2023-03-11T02:47:30.625Z,2.30
2023-03-11T02:49:59.306Z,2.30
2023-03-11T02:52:30.310Z,2.20
2023-03-11T02:54:58.858Z,2.20
2023-03-11T02:57:29.168Z,2.20
2023-03-11T02:59:57.825Z,2.20
2023-03-11T03:02:26.625Z,2.10
2023-03-11T03:04:55.465Z,2.10
2023-03-11T03:07:24.303Z,2.10
2023-03-11T03:09:53.030Z,2.00
2023-03-11T03:12:22.095Z,2.00
2023-03-11T03:14:52.258Z,2.00
2023-03-11T03:17:21.085Z,2.10
2023-03-11T03:19:49.750Z,2.10
2023-03-11T03:22:18.419Z,2.00
2023-03-11T03:24:48.263Z,2.00
2023-03-11T03:27:18.325Z,2.00
2023-03-11T03:29:47.560Z,2.10
2023-03-11T03:32:17.881Z,2.00
2023-03-11T03:34:46.661Z,2.00
2023-03-11T03:37:15.308Z,2.10
2023-03-11T03:39:43.965Z,2.00
2023-03-11T03:42:13.743Z,2.00
2023-03-11T03:44:43.054Z,2.00
2023-03-11T03:47:12.393Z,2.00
2023-03-11T03:49:42.849Z,2.00
2023-03-11T03:52:11.908Z,2.00
2023-03-11T03:54:41.599Z,2.00
2023-03-11T03:57:10.425Z,2.00
2023-03-11T03:59:45.880Z,2.00
2023-03-11T04:02:14.689Z,1.90
2023-03-11T04:04:45.262Z,2.00
2023-03-11T04:07:14.062Z,2.00
2023-03-11T04:09:43.214Z,1.90
2023-03-11T04:12:15.413Z,1.90
2023-03-11T04:14:44.624Z,1.90
2023-03-11T04:17:13.970Z,1.90
2023-03-11T04:19:44.354Z,1.90
2023-03-11T04:22:14.629Z,1.90
2023-03-11T04:24:43.549Z,1.90
2023-03-11T04:27:12.208Z,1.90
2023-03-11T04:29:41.907Z,1.80
2023-03-11T04:32:10.524Z,1.90
2023-03-11T04:34:40.819Z,1.80
2023-03-11T04:37:11.200Z,1.80
2023-03-11T04:39:39.742Z,1.90
2023-03-11T04:42:08.520Z,1.80
2023-03-11T04:44:38.269Z,1.80
2023-03-11T04:47:07.801Z,1.80
2023-03-11T04:49:37.420Z,1.80
2023-03-11T04:52:06.511Z,1.80
2023-03-11T04:54:36.415Z,1.80
2023-03-11T04:57:05.364Z,1.80
2023-03-11T04:59:34.373Z,1.80
2023-03-11T05:02:03.462Z,1.80
2023-03-11T05:04:33.288Z,1.80
2023-03-11T05:07:02.286Z,1.70
2023-03-11T05:09:32.451Z,1.70
2023-03-11T05:12:02.610Z,1.70
2023-03-11T05:14:32.871Z,1.70
2023-03-11T05:17:01.875Z,1.60
2023-03-11T05:19:35.279Z,1.60
2023-03-11T05:22:20.005Z,1.60
2023-03-11T05:24:49.373Z,1.60
2023-03-11T05:27:20.037Z,1.60
2023-03-11T05:29:52.542Z,1.60
2023-03-11T05:32:22.159Z,1.60
2023-03-11T05:34:52.360Z,1.60
2023-03-11T05:37:21.267Z,1.50
2023-03-11T05:39:53.225Z,1.50
2023-03-11T05:42:24.760Z,1.40
2023-03-11T05:44:55.997Z,1.30
2023-03-11T05:47:25.954Z,1.30
2023-03-11T05:49:54.816Z,1.10
2023-03-11T05:52:24.663Z,1.10
2023-03-11T05:54:54.065Z,1.10
2023-03-11T05:57:28.435Z,1.10
2023-03-11T05:59:57.875Z,1.10
2023-03-11T06:02:26.549Z,1.10
2023-03-11T06:04:56.443Z,1.10
2023-03-11T06:07:25.143Z,1.20
2023-03-11T06:09:54.359Z,1.20
2023-03-11T06:12:23.037Z,1.30
2023-03-11T06:15:07.947Z,1.30
2023-03-11T06:17:38.105Z,1.40
2023-03-11T06:20:08.512Z,1.40
2023-03-11T06:22:40.042Z,1.50
2023-03-11T06:25:10.809Z,1.50
2023-03-11T06:27:41.321Z,1.60
2023-03-11T06:30:16.762Z,1.70
2023-03-11T06:32:55.256Z,1.80
2023-03-11T06:35:24.148Z,1.90
2023-03-11T06:37:52.795Z,2.00
2023-03-11T06:40:21.732Z,2.00
2023-03-11T06:42:50.448Z,2.10
2023-03-11T06:45:27.635Z,2.10
2023-03-11T06:47:56.437Z,2.20
2023-03-11T06:50:26.094Z,2.20
2023-03-11T06:52:56.437Z,2.10
2023-03-11T06:55:25.451Z,2.10
2023-03-11T06:57:54.175Z,2.10
2023-03-11T07:00:23.111Z,2.10
2023-03-11T07:02:57.985Z,2.00
2023-03-11T07:05:27.434Z,2.10
2023-03-11T07:08:01.291Z,2.10
2023-03-11T07:10:30.701Z,2.20
2023-03-11T07:12:59.491Z,2.30
2023-03-11T07:15:28.426Z,2.40
2023-03-11T07:17:59.100Z,2.40
2023-03-11T07:20:27.941Z,2.50
2023-03-11T07:22:56.667Z,2.50
2023-03-11T07:25:25.793Z,2.60
2023-03-11T07:27:54.569Z,2.60
2023-03-11T07:30:23.449Z,2.60
2023-03-11T07:32:52.141Z,2.60
2023-03-11T07:35:22.267Z,2.50
2023-03-11T07:37:50.914Z,2.50
2023-03-11T07:40:20.021Z,2.60
2023-03-11T07:42:48.832Z,2.60
2023-03-11T07:45:17.828Z,2.70
2023-03-11T07:47:46.695Z,2.60
2023-03-11T07:50:17.254Z,2.50
2023-03-11T07:52:47.397Z,2.50
2023-03-11T07:55:16.107Z,2.50
2023-03-11T07:57:44.914Z,2.60
2023-03-11T08:00:14.852Z,2.90
2023-03-11T08:02:43.620Z,3.20
2023-03-11T08:05:12.900Z,3.50
2023-03-11T08:07:41.445Z,3.70
2023-03-11T08:10:14.169Z,3.80
2023-03-11T08:12:42.866Z,3.80
2023-03-11T08:15:42.972Z,3.70
2023-03-11T08:18:11.683Z,3.60
2023-03-11T08:20:40.683Z,3.60
2023-03-11T08:23:09.402Z,3.60
2023-03-11T08:25:41.989Z,3.50
2023-03-11T08:28:10.697Z,3.50
2023-03-11T08:30:41.040Z,3.50
2023-03-11T08:33:10.726Z,3.40
2023-03-11T08:35:39.624Z,3.40
2023-03-11T08:38:08.389Z,3.40
2023-03-11T08:40:37.139Z,3.30
2023-03-11T08:43:08.048Z,3.40
2023-03-11T08:45:36.743Z,3.50
2023-03-11T08:48:05.514Z,3.80
2023-03-11T08:50:44.163Z,4.10
2023-03-11T08:53:20.161Z,4.60
2023-03-11T08:55:48.847Z,5.00
2023-03-11T08:58:19.399Z,5.10
2023-03-11T09:00:48.727Z,4.90
2023-03-11T09:03:43.485Z,4.80
2023-03-11T09:06:15.502Z,4.80
2023-03-11T09:08:44.847Z,4.80
2023-03-11T09:11:13.978Z,4.80
2023-03-11T09:13:44.616Z,4.70
2023-03-11T09:16:15.159Z,4.80
2023-03-11T09:18:43.906Z,4.90
2023-03-11T09:21:13.357Z,5.00
2023-03-11T09:23:44.355Z,4.90
2023-03-11T09:26:14.227Z,4.90
2023-03-11T09:28:49.026Z,4.80
2023-03-11T09:31:18.894Z,4.70
2023-03-11T09:33:48.158Z,4.60
2023-03-11T09:36:19.588Z,4.70
2023-03-11T09:38:48.859Z,4.80
2023-03-11T09:41:27.467Z,4.80
2023-03-11T09:44:06.673Z,4.70
2023-03-11T09:47:23.195Z,4.60
2023-03-11T09:50:07.579Z,4.50
2023-03-11T09:52:44.232Z,4.60
2023-03-11T09:55:28.347Z,4.60
2023-03-11T09:57:59.695Z,4.80
2023-03-11T10:00:30.459Z,5.20
2023-03-11T10:03:01.354Z,5.50
2023-03-11T10:05:31.460Z,5.70
2023-03-11T10:08:04.802Z,5.70
2023-03-11T10:10:42.969Z,5.60
2023-03-11T10:13:20.016Z,5.50
2023-03-11T10:15:56.754Z,5.40
2023-03-11T10:18:43.073Z,5.30
2023-03-11T10:21:23.826Z,5.30
2023-03-11T10:24:07.819Z,5.40
2023-03-11T10:26:43.106Z,5.60
2023-03-11T10:29:18.510Z,5.80
2023-03-11T10:31:53.174Z,5.90
2023-03-11T10:34:27.428Z,5.70
2023-03-11T10:37:03.999Z,5.70
2023-03-11T10:39:33.661Z,5.70
2023-03-11T10:42:04.962Z,5.60
2023-03-11T10:44:36.565Z,5.60
2023-03-11T10:47:08.213Z,5.60
2023-03-11T10:49:36.780Z,5.60
2023-03-11T10:52:06.079Z,5.60
2023-03-11T10:54:37.786Z,5.60
2023-03-11T10:57:08.240Z,5.60
2023-03-11T10:59:47.897Z,5.60
2023-03-11T11:02:42.697Z,5.40
2023-03-11T11:05:29.376Z,5.10
2023-03-11T11:08:06.945Z,5.00
2023-03-11T11:10:37.606Z,4.90
2023-03-11T11:13:19.874Z,4.90
2023-03-11T11:15:57.656Z,5.00
2023-03-11T11:18:30.956Z,5.10
2023-03-11T11:21:06.686Z,5.30
2023-03-11T11:23:42.798Z,5.40
2023-03-11T11:26:18.887Z,5.60
2023-03-11T11:28:47.840Z,5.70
2023-03-11T11:31:25.570Z,5.90
2023-03-11T11:33:57.696Z,6.00
2023-03-11T11:36:30.892Z,6.20
2023-03-11T11:39:02.995Z,6.60
2023-03-11T11:41:35.130Z,6.70
2023-03-11T11:44:07.278Z,6.60
2023-03-11T11:46:40.029Z,6.50
2023-03-11T11:49:18.025Z,6.20
2023-03-11T11:51:52.192Z,6.10
2023-03-11T11:54:27.631Z,6.20
2023-03-11T11:56:57.298Z,6.20
2023-03-11T11:59:26.653Z,6.20
2023-03-11T12:02:05.308Z,5.90
2023-03-11T12:04:48.103Z,5.70
2023-03-11T12:07:39.879Z,5.50
2023-03-11T12:10:24.748Z,5.50
2023-03-11T12:13:31.411Z,5.40
2023-03-11T12:16:07.236Z,5.60
2023-03-11T12:18:40.796Z,5.70
2023-03-11T12:21:23.875Z,5.70
2023-03-11T12:24:04.478Z,5.80
2023-03-11T12:26:36.925Z,5.80
2023-03-11T12:29:09.883Z,5.90
2023-03-11T12:31:41.938Z,5.90
2023-03-11T12:34:14.058Z,5.90
2023-03-11T12:36:46.317Z,6.10
2023-03-11T12:39:24.235Z,6.20
2023-03-11T12:42:18.474Z,6.20
2023-03-11T12:44:48.277Z,6.20
2023-03-11T12:47:27.399Z,6.30
2023-03-11T12:49:57.502Z,6.30
2023-03-11T12:52:31.925Z,6.30
2023-03-11T12:55:30.921Z,6.40
2023-03-11T12:58:13.003Z,6.40
2023-03-11T13:01:12.757Z,6.40
2023-03-11T13:03:50.647Z,6.40
2023-03-11T13:06:44.256Z,6.50
2023-03-11T13:09:18.421Z,6.40
2023-03-11T13:11:48.203Z,6.50
2023-03-11T13:14:30.783Z,6.60
2023-03-11T13:17:25.830Z,6.60
2023-03-11T13:19:56.299Z,6.60
2023-03-11T13:23:06.544Z,6.50
2023-03-11T13:25:40.900Z,6.50
2023-03-11T13:28:28.983Z,6.40
2023-03-11T13:31:07.493Z,6.40
2023-03-11T13:33:49.822Z,6.40
2023-03-11T13:36:37.959Z,6.30
2023-03-11T13:39:36.699Z,6.20
2023-03-11T13:42:16.979Z,6.10
2023-03-11T13:44:47.692Z,5.80
2023-03-11T13:47:18.240Z,5.50
2023-03-11T13:49:52.404Z,5.30
2023-03-11T13:52:27.533Z,5.00
2023-03-11T13:55:02.534Z,4.80
2023-03-11T13:57:33.466Z,4.70
2023-03-11T14:00:16.642Z,4.60
2023-03-11T14:02:49.153Z,4.60
2023-03-11T14:05:21.378Z,4.70
2023-03-11T14:07:50.121Z,4.70
2023-03-11T14:10:25.033Z,4.80
2023-03-11T14:13:07.401Z,4.80
2023-03-11T14:15:46.536Z,4.90
2023-03-11T14:18:33.408Z,4.80
2023-03-11T14:21:02.805Z,4.80
2023-03-11T14:23:35.044Z,4.70
2023-03-11T14:26:07.515Z,4.70
2023-03-11T14:28:41.921Z,4.70
2023-03-11T14:31:24.599Z,4.90
2023-03-11T14:33:58.750Z,5.00
2023-03-11T14:36:27.283Z,5.10
2023-03-11T14:38:56.109Z,5.10
2023-03-11T14:41:24.907Z,5.10
2023-03-11T14:43:56.078Z,5.10
2023-03-11T14:46:29.718Z,5.20
2023-03-11T14:49:01.940Z,5.20
2023-03-11T14:51:34.838Z,5.20
2023-03-11T14:54:09.989Z,5.20
2023-03-11T14:56:42.713Z,5.20
2023-03-11T14:59:20.195Z,5.10
2023-03-11T15:01:49.744Z,5.10
2023-03-11T15:04:28.257Z,5.00
2023-03-11T15:06:57.429Z,5.00
2023-03-11T15:09:28.025Z,4.80
2023-03-11T15:11:59.288Z,4.70
2023-03-11T15:14:31.828Z,4.60
2023-03-11T15:17:32.849Z,4.50
2023-03-11T15:20:04.932Z,4.40
2023-03-11T15:22:38.240Z,4.40
2023-03-11T15:25:17.868Z,4.30
2023-03-11T15:27:47.792Z,4.30
2023-03-11T15:30:24.263Z,4.30
2023-03-11T15:32:53.228Z,4.30
2023-03-11T15:35:24.342Z,4.30
2023-03-11T15:38:13.267Z,4.30
2023-03-11T15:40:53.789Z,4.20
2023-03-11T15:43:26.595Z,4.20
2023-03-11T15:45:59.189Z,4.20
2023-03-11T15:48:30.063Z,4.20
2023-03-11T15:51:00.310Z,4.20
2023-03-11T15:53:30.252Z,4.20
2023-03-11T15:56:07.307Z,4.30
2023-03-11T15:58:39.374Z,4.30
2023-03-11T16:01:11.051Z,4.40
2023-03-11T16:03:40.146Z,4.40
2023-03-11T16:06:08.976Z,4.30
2023-03-11T16:08:37.574Z,4.20
2023-03-11T16:11:07.325Z,4.10
2023-03-11T16:13:36.056Z,4.10
2023-03-11T16:16:05.023Z,4.10
2023-03-11T16:18:35.842Z,4.00
2023-03-11T16:21:10.093Z,4.00
2023-03-11T16:23:51.073Z,4.00
2023-03-11T16:26:21.928Z,4.00
2023-03-11T16:28:50.565Z,3.90
2023-03-11T16:31:19.381Z,3.90
2023-03-11T16:33:49.421Z,3.90
2023-03-11T16:36:18.266Z,3.90
2023-03-11T16:38:48.532Z,3.90
2023-03-11T16:41:18.339Z,3.90
2023-03-11T16:43:47.295Z,3.90
2023-03-11T16:46:16.417Z,3.90
2023-03-11T16:48:45.118Z,3.90
2023-03-11T16:51:15.062Z,3.90
2023-03-11T16:53:43.904Z,3.80
2023-03-11T16:56:12.567Z,3.70
2023-03-11T16:58:41.254Z,3.50
2023-03-11T17:01:13.200Z,3.50
2023-03-11T17:03:43.565Z,3.40
2023-03-11T17:06:12.474Z,3.40
2023-03-11T17:08:46.185Z,3.30
2023-03-11T17:11:18.965Z,3.30
2023-03-11T17:13:47.630Z,3.20
2023-03-11T17:16:16.449Z,3.20
2023-03-11T17:18:45.109Z,3.10
2023-03-11T17:21:16.887Z,3.10
2023-03-11T17:23:47.113Z,3.10
2023-03-11T17:26:17.741Z,3.10
2023-03-11T17:28:46.411Z,3.10
2023-03-11T17:31:16.421Z,3.10
2023-03-11T17:33:46.199Z,3.10
2023-03-11T17:36:16.859Z,3.10
2023-03-11T17:38:48.533Z,3.10
2023-03-11T17:41:18.676Z,3.00
2023-03-11T17:43:49.717Z,3.00
2023-03-11T17:46:20.746Z,3.00
2023-03-11T17:48:50.667Z,3.00
2023-03-11T17:51:21.687Z,3.00
2023-03-11T17:53:51.802Z,3.00
2023-03-11T17:56:21.542Z,3.00
2023-03-11T17:58:50.968Z,3.00
2023-03-11T18:01:22.485Z,3.00
2023-03-11T18:03:52.174Z,2.90
2023-03-11T18:06:21.829Z,2.90
2023-03-11T18:08:52.250Z,2.90
2023-03-11T18:11:22.869Z,2.90
2023-03-11T18:13:52.126Z,2.80
2023-03-11T18:16:22.830Z,2.80
2023-03-11T18:18:52.658Z,2.80
2023-03-11T18:21:23.826Z,2.80
2023-03-11T18:23:56.219Z,2.80
2023-03-11T18:26:26.937Z,2.80
2023-03-11T18:28:55.927Z,2.70
2023-03-11T18:31:25.814Z,2.70
2023-03-11T18:33:56.148Z,2.70
2023-03-11T18:36:27.724Z,2.70
2023-03-11T18:38:59.933Z,2.70
2023-03-11T18:41:31.686Z,2.70
2023-03-11T18:44:00.856Z,2.70
2023-03-11T18:46:31.648Z,2.70
2023-03-11T18:49:02.205Z,2.70
2023-03-11T18:51:33.154Z,2.70
2023-03-11T18:54:03.925Z,2.80
2023-03-11T18:56:32.621Z,2.80
2023-03-11T18:59:02.265Z,2.80
2023-03-11T19:01:31.284Z,2.80
2023-03-11T19:04:01.344Z,2.80
2023-03-11T19:06:30.416Z,2.70
2023-03-11T19:08:59.435Z,2.80
2023-03-11T19:11:29.704Z,2.70
2023-03-11T19:13:58.322Z,2.70
2023-03-11T19:16:27.957Z,2.70
2023-03-11T19:18:57.196Z,2.70
2023-03-11T19:21:26.237Z,2.70
2023-03-11T19:23:56.609Z,2.60
2023-03-11T19:26:43.069Z,2.50
2023-03-11T19:29:14.941Z,2.50
2023-03-11T19:31:45.503Z,2.40
2023-03-11T19:34:14.303Z,2.30
2023-03-11T19:36:42.952Z,2.20
2023-03-11T19:39:11.532Z,2.10
2023-03-11T19:41:40.158Z,2.00
2023-03-11T19:44:08.759Z,1.80
2023-03-11T19:46:38.889Z,1.70
2023-03-11T19:49:07.650Z,1.60
2023-03-11T19:51:49.113Z,1.50
2023-03-11T19:54:18.772Z,1.40
2023-03-11T19:56:48.233Z,1.30
2023-03-11T19:59:17.337Z,1.20
2023-03-11T20:01:47.623Z,1.20
2023-03-11T20:04:16.551Z,1.10
2023-03-11T20:06:45.363Z,1.00
2023-03-11T20:09:16.039Z,0.90
2023-03-11T20:11:45.719Z,0.90
2023-03-11T20:14:14.928Z,0.80
2023-03-11T20:16:43.833Z,0.70
2023-03-11T20:19:13.978Z,0.70
2023-03-11T20:21:45.364Z,0.60
2023-03-11T20:24:14.644Z,0.60
2023-03-11T20:26:43.421Z,0.50
2023-03-11T20:29:12.120Z,0.50
2023-03-11T20:31:40.837Z,0.50
2023-03-11T20:34:10.486Z,0.50
2023-03-11T20:36:40.758Z,0.50
2023-03-11T20:39:10.698Z,0.50
2023-03-11T20:41:41.285Z,0.50
2023-03-11T20:44:12.606Z,0.50
2023-03-11T20:46:41.475Z,0.50
2023-03-11T20:49:10.582Z,0.50
2023-03-11T20:51:41.945Z,0.50
2023-03-11T20:54:12.253Z,0.50
2023-03-11T20:56:40.846Z,0.50
2023-03-11T20:59:09.681Z,0.40
2023-03-11T21:01:38.397Z,0.40
2023-03-11T21:04:07.627Z,0.30
2023-03-11T21:06:38.140Z,0.30
2023-03-11T21:09:09.748Z,0.30
2023-03-11T21:11:38.376Z,0.20
2023-03-11T21:14:08.789Z,0.20
2023-03-11T21:16:38.952Z,0.20
2023-03-11T21:19:09.008Z,0.10
2023-03-11T21:21:37.995Z,0.10
2023-03-11T21:24:09.118Z,0.00
2023-03-11T21:26:38.540Z,-0.10
2023-03-11T21:29:07.320Z,-0.10
2023-03-11T21:31:35.996Z,-0.20
2023-03-11T21:34:04.527Z,-0.30
2023-03-11T21:36:33.237Z,-0.30
2023-03-11T21:39:03.697Z,-0.40
2023-03-11T21:41:34.044Z,-0.50
2023-03-11T21:44:02.796Z,-0.60
2023-03-11T21:46:33.090Z,-0.70
2023-03-11T21:49:02.428Z,-0.80
2023-03-11T21:51:31.259Z,-0.90
2023-03-11T21:54:00.267Z,-0.90
2023-03-11T21:56:29.061Z,-1.10
2023-03-11T21:58:59.398Z,-1.10
2023-03-11T22:01:27.972Z,-1.20
2023-03-11T22:03:56.749Z,-1.20
2023-03-11T22:06:25.451Z,-1.30
2023-03-11T22:08:54.077Z,-1.40
2023-03-11T22:11:22.763Z,-1.40
2023-03-11T22:13:52.902Z,-1.40
2023-03-11T22:16:24.489Z,-1.50
2023-03-11T22:18:53.931Z,-1.40
2023-03-11T22:21:22.553Z,-1.50
2023-03-11T22:23:51.172Z,-1.50
2023-03-11T22:26:19.971Z,-1.50
2023-03-11T22:28:48.750Z,-1.60
2023-03-11T22:31:19.208Z,-1.60
2023-03-11T22:33:49.329Z,-1.60
2023-03-11T22:36:18.071Z,-1.60
2023-03-11T22:38:46.653Z,-1.60
2023-03-11T22:41:16.905Z,-1.60
2023-03-11T22:43:45.475Z,-1.60
2023-03-11T22:46:14.332Z,-1.70
2023-03-11T22:48:42.966Z,-1.70
2023-03-11T22:51:13.085Z,-1.70
2023-03-11T22:53:41.940Z,-1.80
2023-03-11T22:56:13.014Z,-1.80
2023-03-11T22:58:41.769Z,-1.80
2023-03-11T23:01:10.846Z,-1.80
2023-03-11T23:03:40.194Z,-1.80
2023-03-11T23:06:10.415Z,-1.80
2023-03-11T23:08:40.607Z,-1.80
2023-03-11T23:11:11.284Z,-1.80
2023-03-11T23:13:41.357Z,-1.80
2023-03-11T23:16:14.177Z,-1.80
2023-03-11T23:18:44.647Z,-1.80
2023-03-11T23:21:18.894Z,-1.90
2023-03-11T23:23:49.071Z,-1.90
2023-03-11T23:26:18.178Z,-1.90
2023-03-11T23:28:47.949Z,-2.00
2023-03-11T23:31:17.681Z,-2.00
2023-03-11T23:33:47.180Z,-2.10
2023-03-11T23:36:17.767Z,-2.10
2023-03-11T23:38:46.493Z,-2.10
2023-03-11T23:41:18.776Z,-2.10
2023-03-11T23:43:47.645Z,-2.10
2023-03-11T23:46:16.714Z,-2.00
2023-03-11T23:48:45.260Z,-2.00
2023-03-11T23:51:13.920Z,-2.00
2023-03-11T23:53:42.543Z,-2.00
2023-03-11T23:56:14.442Z,-2.00
2023-03-11T23:58:45.266Z,-2.00
